createdAt,value
2022-08-08T00:00:50.250Z,1.88
2022-08-08T00:03:20.128Z,1.85
2022-08-08T00:06:02.658Z,1.50
2022-08-08T00:08:40.381Z,1.92
2022-08-08T00:11:20.771Z,1.30
2022-08-08T00:14:16.862Z,1.42
2022-08-08T00:17:04.440Z,1.25
2022-08-08T00:19:59.653Z,1.70
2022-08-08T00:22:34.203Z,1.80
2022-08-08T00:25:13.626Z,1.48
2022-08-08T00:27:43.598Z,1.30
2022-08-08T00:30:15.833Z,1.52
2022-08-08T00:32:49.061Z,1.55
2022-08-08T00:35:34.663Z,1.10
2022-08-08T00:38:51.727Z,1.60
2022-08-08T00:42:08.587Z,1.58
2022-08-08T00:45:04.337Z,1.55
2022-08-08T00:48:30.216Z,1.40
2022-08-08T00:51:38.803Z,1.63
2022-08-08T00:54:49.309Z,1.40
2022-08-08T00:57:57.090Z,1.30
2022-08-08T01:00:32.148Z,1.30
2022-08-08T01:04:01.282Z,1.40
2022-08-08T01:07:14.192Z,1.80
2022-08-08T01:10:34.698Z,1.15
2022-08-08T01:13:52.973Z,1.60
2022-08-08T01:16:46.616Z,1.42
2022-08-08T01:20:04.780Z,1.40
2022-08-08T01:23:03.374Z,1.40
2022-08-08T01:26:20.166Z,1.65
2022-08-08T01:29:24.277Z,1.50
2022-08-08T01:32:56.667Z,1.23
2022-08-08T01:36:19.323Z,1.88
2022-08-08T01:39:24.021Z,1.90
2022-08-08T01:42:08.138Z,1.60
2022-08-08T01:45:04.254Z,1.75
2022-08-08T01:48:16.766Z,1.70
2022-08-08T01:50:59.087Z,2.15
2022-08-08T01:55:16.552Z,1.50
2022-08-08T01:56:46.948Z,1.40
2022-08-08T01:59:38.043Z,1.42
2022-08-08T02:02:41.452Z,1.42
2022-08-08T02:05:33.927Z,1.50
2022-08-08T02:08:34.091Z,1.75
2022-08-08T02:11:23.126Z,1.98
2022-08-08T02:13:58.904Z,1.65
2022-08-08T02:16:50.655Z,1.35
2022-08-08T02:19:57.607Z,1.13
2022-08-08T02:22:52.841Z,1.58
2022-08-08T02:25:47.432Z,1.50
2022-08-08T02:28:34.777Z,1.55
2022-08-08T02:31:43.649Z,1.40
2022-08-08T02:34:14.886Z,1.40
2022-08-08T02:37:10.038Z,1.90
2022-08-08T02:40:08.642Z,1.60
2022-08-08T02:44:36.884Z,1.60
2022-08-08T02:46:27.195Z,1.73
2022-08-08T02:49:47.579Z,1.27
2022-08-08T02:52:40.317Z,1.50
2022-08-08T02:56:01.988Z,1.40
2022-08-08T02:59:36.991Z,1.50
2022-08-08T03:02:59.303Z,1.73
2022-08-08T03:06:07.621Z,1.42
2022-08-08T03:09:09.437Z,1.60
2022-08-08T03:12:36.726Z,1.92
2022-08-08T03:15:59.841Z,1.50
2022-08-08T03:18:33.470Z,1.40
2022-08-08T03:21:10.186Z,1.73
2022-08-08T03:23:59.657Z,1.45
2022-08-08T03:26:42.044Z,1.58
2022-08-08T03:29:26.700Z,1.67
2022-08-08T03:32:29.149Z,1.50
2022-08-08T03:35:00.344Z,1.75
2022-08-08T03:37:59.357Z,1.60
2022-08-08T03:40:30.453Z,1.75
2022-08-08T03:43:16.401Z,2.05
2022-08-08T03:46:06.288Z,1.92
2022-08-08T03:49:55.022Z,1.60
2022-08-08T03:51:50.300Z,1.92
2022-08-08T03:54:41.281Z,1.90
2022-08-08T03:58:33.347Z,1.80
2022-08-08T04:00:11.956Z,1.65
2022-08-08T04:03:00.401Z,1.75
2022-08-08T04:05:32.389Z,1.88
2022-08-08T04:08:08.983Z,1.67
2022-08-08T04:10:37.703Z,2.20
2022-08-08T04:13:18.095Z,1.67
2022-08-08T04:16:03.920Z,1.90
2022-08-08T04:18:48.572Z,1.90
2022-08-08T04:21:23.208Z,1.80
2022-08-08T04:24:11.950Z,1.73
2022-08-08T04:26:57.454Z,1.48
2022-08-08T04:29:33.355Z,1.48
2022-08-08T04:32:10.430Z,1.85
2022-08-08T04:34:49.447Z,1.63
2022-08-08T04:37:32.087Z,1.90
2022-08-08T04:40:10.576Z,1.48
2022-08-08T04:42:57.007Z,1.90
2022-08-08T04:45:34.431Z,1.60
2022-08-08T04:48:06.405Z,1.52
2022-08-08T04:50:45.970Z,1.85
2022-08-08T04:54:27.487Z,1.77
2022-08-08T04:56:22.444Z,1.77
2022-08-08T04:58:51.173Z,1.65
2022-08-08T05:01:22.407Z,1.70
2022-08-08T05:04:27.740Z,1.90
2022-08-08T05:06:57.592Z,2.40
2022-08-08T05:09:26.821Z,1.70
2022-08-08T05:11:58.149Z,1.60
2022-08-08T05:14:57.303Z,2.00
2022-08-08T05:17:53.899Z,1.98
2022-08-08T05:20:19.108Z,1.83
2022-08-08T05:22:50.801Z,1.60
2022-08-08T05:25:21.361Z,1.55
2022-08-08T05:27:50.183Z,1.50
2022-08-08T05:30:28.556Z,2.10
2022-08-08T05:33:03.363Z,1.88
2022-08-08T05:35:35.868Z,1.73
2022-08-08T05:38:30.489Z,1.83
2022-08-08T05:41:06.553Z,1.42
2022-08-08T05:43:39.655Z,1.52
2022-08-08T05:46:27.371Z,1.45
2022-08-08T05:48:59.450Z,1.88
2022-08-08T05:51:49.207Z,1.92
2022-08-08T05:54:27.238Z,1.63
2022-08-08T05:57:20.923Z,1.70
2022-08-08T06:00:23.128Z,1.85
2022-08-08T06:03:29.512Z,1.80
2022-08-08T06:06:06.617Z,2.25
2022-08-08T06:08:41.157Z,1.70
2022-08-08T06:11:28.326Z,1.70
2022-08-08T06:13:58.850Z,1.48
2022-08-08T06:16:30.321Z,1.92
2022-08-08T06:19:18.386Z,2.53
2022-08-08T06:21:57.796Z,2.03
2022-08-08T06:24:40.206Z,2.00
2022-08-08T06:27:22.756Z,1.70
2022-08-08T06:30:02.404Z,2.00
2022-08-08T06:32:50.169Z,1.75
2022-08-08T06:36:07.566Z,2.00
2022-08-08T06:38:20.057Z,1.90
2022-08-08T06:40:55.135Z,2.00
2022-08-08T06:43:35.733Z,2.22
2022-08-08T06:46:16.774Z,1.83
2022-08-08T06:48:49.870Z,2.58
2022-08-08T06:51:22.287Z,2.10
2022-08-08T06:53:56.463Z,2.00
2022-08-08T06:56:35.848Z,1.92
2022-08-08T06:59:12.149Z,2.30
2022-08-08T07:02:26.465Z,2.67
2022-08-08T07:04:49.554Z,2.10
2022-08-08T07:07:28.730Z,2.50
2022-08-08T07:10:08.274Z,2.08
2022-08-08T07:12:48.333Z,2.45
2022-08-08T07:16:07.121Z,2.15
2022-08-08T07:18:58.544Z,2.80
2022-08-08T07:21:36.245Z,2.50
2022-08-08T07:24:09.896Z,2.40
2022-08-08T07:26:50.850Z,2.10
2022-08-08T07:30:00.441Z,2.58
2022-08-08T07:32:16.917Z,3.20
2022-08-08T07:35:01.358Z,3.10
2022-08-08T07:37:55.556Z,2.50
2022-08-08T07:40:52.178Z,2.80
2022-08-08T07:43:35.244Z,3.13
2022-08-08T07:46:24.163Z,3.10
2022-08-08T07:49:04.613Z,3.27
2022-08-08T07:51:45.589Z,3.70
2022-08-08T07:54:34.004Z,3.10
2022-08-08T07:57:21.107Z,3.30
2022-08-08T08:00:03.501Z,2.73
2022-08-08T08:02:41.666Z,3.27
2022-08-08T08:05:20.551Z,3.00
2022-08-08T08:07:54.932Z,3.53
2022-08-08T08:10:33.443Z,3.30
2022-08-08T08:13:25.137Z,2.90
2022-08-08T08:16:03.458Z,3.40
2022-08-08T08:18:52.217Z,4.20
2022-08-08T08:21:44.719Z,3.50
2022-08-08T08:24:42.950Z,3.20
2022-08-08T08:27:14.920Z,2.87
2022-08-08T08:29:50.920Z,3.63
2022-08-08T08:32:32.072Z,3.10
2022-08-08T08:35:09.575Z,3.60
2022-08-08T08:38:12.912Z,3.70
2022-08-08T08:40:32.201Z,3.63
2022-08-08T08:43:10.190Z,3.73
2022-08-08T08:45:44.737Z,3.30
2022-08-08T08:48:16.319Z,3.30
2022-08-08T08:50:47.015Z,3.47
2022-08-08T08:53:27.916Z,3.20
2022-08-08T08:56:24.210Z,3.87
2022-08-08T08:59:02.042Z,3.60
2022-08-08T09:01:36.378Z,3.40
2022-08-08T09:04:31.457Z,3.80
2022-08-08T09:07:12.154Z,3.47
2022-08-08T09:09:57.680Z,2.80
2022-08-08T09:12:41.405Z,3.17
2022-08-08T09:15:24.225Z,2.73
2022-08-08T09:18:05.713Z,2.90
2022-08-08T09:21:58.546Z,3.23
2022-08-08T09:23:33.495Z,3.10
2022-08-08T09:26:17.759Z,2.90
2022-08-08T09:28:51.755Z,3.00
2022-08-08T09:31:56.550Z,3.30
2022-08-08T09:34:35.002Z,3.00
2022-08-08T09:37:39.549Z,2.90
2022-08-08T09:40:24.004Z,3.20
2022-08-08T09:43:16.583Z,3.07
2022-08-08T09:46:03.272Z,3.53
2022-08-08T09:48:42.471Z,3.23
2022-08-08T09:51:16.175Z,3.23
2022-08-08T09:53:59.188Z,3.13
2022-08-08T09:56:45.315Z,2.47
2022-08-08T10:00:02.236Z,2.80
2022-08-08T10:02:23.446Z,2.67
2022-08-08T10:04:53.869Z,2.63
2022-08-08T10:07:23.967Z,2.50
2022-08-08T10:10:07.281Z,2.13
2022-08-08T10:12:54.203Z,2.40
2022-08-08T10:15:29.460Z,2.20
2022-08-08T10:18:09.125Z,2.57
2022-08-08T10:20:57.450Z,2.70
2022-08-08T10:23:45.028Z,2.40
2022-08-08T10:26:29.787Z,2.50
2022-08-08T10:29:31.119Z,2.70
2022-08-08T10:32:36.354Z,2.60
2022-08-08T10:36:01.825Z,2.90
2022-08-08T10:38:05.915Z,2.17
2022-08-08T10:40:39.841Z,2.47
2022-08-08T10:43:12.394Z,2.67
2022-08-08T10:45:56.386Z,2.30
2022-08-08T10:48:37.307Z,2.80
2022-08-08T10:51:24.311Z,3.07
2022-08-08T10:53:59.544Z,3.00
2022-08-08T10:56:35.462Z,3.23
2022-08-08T10:59:09.640Z,2.80
2022-08-08T11:01:40.446Z,3.60
2022-08-08T11:04:12.002Z,3.40
2022-08-08T11:06:41.319Z,3.30
2022-08-08T11:09:19.885Z,3.30
2022-08-08T11:12:06.439Z,3.00
2022-08-08T11:14:52.596Z,3.30
2022-08-08T11:17:59.605Z,3.63
2022-08-08T11:20:18.059Z,3.10
2022-08-08T11:22:51.806Z,3.30
2022-08-08T11:25:53.102Z,3.40
2022-08-08T11:28:15.122Z,3.40
2022-08-08T11:30:52.933Z,3.10
2022-08-08T11:33:51.546Z,3.33
2022-08-08T11:36:16.309Z,3.33
2022-08-08T11:38:54.807Z,3.17
2022-08-08T11:41:28.154Z,3.17
2022-08-08T11:44:02.190Z,3.33
2022-08-08T11:46:34.949Z,3.20
2022-08-08T11:49:05.435Z,2.87
2022-08-08T11:51:49.935Z,2.97
2022-08-08T11:54:33.477Z,2.90
2022-08-08T11:57:14.000Z,3.33
2022-08-08T12:00:01.102Z,3.00
2022-08-08T12:02:54.928Z,2.70
2022-08-08T12:05:34.001Z,2.47
2022-08-08T12:08:02.432Z,2.37
2022-08-08T12:10:33.654Z,2.27
2022-08-08T12:13:06.035Z,2.50
2022-08-08T12:15:41.909Z,2.93
2022-08-08T12:18:21.005Z,2.70
2022-08-08T12:20:53.396Z,3.03
2022-08-08T12:23:43.986Z,2.50
2022-08-08T12:26:28.089Z,2.60
2022-08-08T12:29:21.498Z,2.80
2022-08-08T12:32:02.647Z,2.53
2022-08-08T12:35:13.412Z,2.60
2022-08-08T12:38:01.141Z,2.53
2022-08-08T12:40:54.239Z,2.60
2022-08-08T12:43:32.553Z,2.93
2022-08-08T12:46:03.430Z,2.50
2022-08-08T12:48:37.333Z,2.90
2022-08-08T12:51:21.831Z,2.80
2022-08-08T12:53:59.194Z,2.70
2022-08-08T12:56:35.410Z,3.00
2022-08-08T12:59:16.551Z,2.60
2022-08-08T13:01:52.963Z,2.40
2022-08-08T13:04:25.797Z,2.50
2022-08-08T13:06:58.811Z,2.33
2022-08-08T13:10:00.675Z,2.80
2022-08-08T13:12:29.611Z,2.53
2022-08-08T13:15:03.080Z,2.73
2022-08-08T13:18:07.901Z,2.93
2022-08-08T13:20:25.993Z,2.10
2022-08-08T13:26:14.835Z,2.60
2022-08-08T13:28:45.748Z,2.50
2022-08-08T13:31:17.518Z,2.00
2022-08-08T13:33:49.885Z,2.77
2022-08-08T13:36:25.985Z,2.43
2022-08-08T13:38:59.472Z,2.43
2022-08-08T13:41:37.656Z,2.93
2022-08-08T13:44:10.818Z,2.30
2022-08-08T13:46:40.685Z,2.27
2022-08-08T13:50:34.715Z,2.43
2022-08-08T13:52:07.741Z,2.10
2022-08-08T13:54:43.983Z,2.30
2022-08-08T13:57:14.592Z,2.00
2022-08-08T13:59:48.196Z,1.90
2022-08-08T14:02:21.741Z,2.20
2022-08-08T14:04:55.392Z,2.20
2022-08-08T14:07:29.952Z,2.70
2022-08-08T14:10:11.853Z,2.47
2022-08-08T14:12:45.145Z,2.60
2022-08-08T14:15:39.403Z,2.27
2022-08-08T14:18:34.641Z,2.17
2022-08-08T14:21:12.786Z,2.33
2022-08-08T14:24:07.132Z,2.50
2022-08-08T14:26:45.964Z,2.50
2022-08-08T14:29:28.291Z,2.50
2022-08-08T14:32:08.788Z,2.40
2022-08-08T14:34:39.652Z,2.20
2022-08-08T14:37:13.146Z,2.33
2022-08-08T14:39:49.775Z,2.53
2022-08-08T14:42:31.989Z,2.20
2022-08-08T14:45:04.071Z,2.63
2022-08-08T14:47:36.332Z,2.57
2022-08-08T14:50:15.058Z,2.67
2022-08-08T14:52:48.602Z,2.13
2022-08-08T14:55:22.595Z,2.27
2022-08-08T14:58:15.940Z,2.17
2022-08-08T15:00:47.767Z,2.10
2022-08-08T15:03:17.436Z,2.13
2022-08-08T15:05:53.755Z,2.50
2022-08-08T15:08:34.806Z,2.33
2022-08-08T15:11:14.495Z,2.30
2022-08-08T15:14:01.545Z,2.30
2022-08-08T15:16:34.046Z,2.13
2022-08-08T15:19:04.370Z,2.37
2022-08-08T15:21:33.028Z,1.77
2022-08-08T15:24:01.809Z,2.20
2022-08-08T15:26:31.568Z,2.27
2022-08-08T15:29:01.083Z,2.03
2022-08-08T15:32:04.069Z,1.97
2022-08-08T15:34:31.627Z,1.67
2022-08-08T15:37:02.079Z,2.30
2022-08-08T15:39:38.244Z,1.93
2022-08-08T15:42:10.264Z,1.80
2022-08-08T15:44:43.418Z,2.23
2022-08-08T15:47:18.853Z,2.10
2022-08-08T15:49:49.073Z,2.43
2022-08-08T15:52:21.451Z,2.30
2022-08-08T15:54:51.686Z,2.10
2022-08-08T15:57:22.385Z,2.10
2022-08-08T16:00:06.657Z,1.80
2022-08-08T16:02:43.843Z,2.07
2022-08-08T16:05:19.802Z,1.60
2022-08-08T16:07:52.563Z,2.13
2022-08-08T16:13:15.208Z,2.03
2022-08-08T16:13:34.352Z,1.80
2022-08-08T16:16:09.692Z,1.90
2022-08-08T16:19:06.976Z,1.70
2022-08-08T16:21:36.532Z,2.17
2022-08-08T16:24:10.240Z,1.80
2022-08-08T16:26:42.373Z,1.77
2022-08-08T16:29:15.570Z,2.20
2022-08-08T16:31:49.126Z,2.23
2022-08-08T16:34:19.835Z,1.90
2022-08-08T16:36:50.896Z,1.83
2022-08-08T16:39:59.799Z,2.13
2022-08-08T16:42:13.940Z,2.00
2022-08-08T16:44:54.281Z,1.73
2022-08-08T16:47:39.911Z,1.70
2022-08-08T16:50:14.008Z,1.70
2022-08-08T16:55:04.082Z,2.13
2022-08-08T16:55:53.727Z,1.90
2022-08-08T16:58:25.324Z,1.70
2022-08-08T17:00:55.124Z,2.00
2022-08-08T17:03:59.036Z,1.70
2022-08-08T17:06:37.339Z,1.67
2022-08-08T17:09:02.409Z,1.60
2022-08-08T17:11:48.195Z,1.80
2022-08-08T17:14:33.201Z,1.80
2022-08-08T17:17:03.885Z,1.63
2022-08-08T17:19:40.798Z,1.90
2022-08-08T17:22:10.750Z,1.87
2022-08-08T17:24:40.723Z,1.53
2022-08-08T17:27:10.446Z,1.77
2022-08-08T17:29:43.890Z,1.83
2022-08-08T17:32:28.990Z,1.63
2022-08-08T17:35:55.889Z,1.50
2022-08-08T17:37:53.305Z,1.60
2022-08-08T17:40:25.167Z,1.63
2022-08-08T17:42:54.726Z,1.60
2022-08-08T17:45:24.453Z,1.23
2022-08-08T17:47:54.818Z,1.67
2022-08-08T17:50:25.821Z,2.10
2022-08-08T17:52:56.369Z,1.87
2022-08-08T17:56:04.909Z,1.30
2022-08-08T17:58:15.422Z,1.90
2022-08-08T18:00:47.553Z,1.90
2022-08-08T18:03:23.054Z,1.67
2022-08-08T18:05:52.978Z,1.70
2022-08-08T18:08:25.186Z,1.53
2022-08-08T18:11:15.145Z,1.40
2022-08-08T18:13:45.876Z,1.30
2022-08-08T18:16:20.275Z,1.27
2022-08-08T18:18:52.842Z,1.40
2022-08-08T18:21:58.713Z,1.40
2022-08-08T18:24:19.159Z,1.33
2022-08-08T18:26:53.839Z,1.30
2022-08-08T18:29:29.434Z,1.40
2022-08-08T18:31:59.322Z,1.73
2022-08-08T18:34:28.745Z,1.70
2022-08-08T18:36:58.353Z,1.40
2022-08-08T18:39:29.269Z,1.80
2022-08-08T18:41:59.868Z,1.53
2022-08-08T18:44:35.913Z,1.80
2022-08-08T18:47:05.295Z,1.70
2022-08-08T18:49:57.257Z,1.50
2022-08-08T18:52:24.743Z,2.00
2022-08-08T18:55:00.808Z,1.60
2022-08-08T18:57:40.968Z,2.00
2022-08-08T19:00:20.992Z,1.90
2022-08-08T19:02:57.380Z,1.37
2022-08-08T19:05:32.376Z,1.53
2022-08-08T19:08:25.156Z,1.70
2022-08-08T19:10:58.629Z,1.63
2022-08-08T19:13:52.683Z,1.80
2022-08-08T19:16:19.453Z,1.67
2022-08-08T19:18:53.077Z,1.73
2022-08-08T19:21:30.990Z,1.57
2022-08-08T19:24:08.568Z,1.60
2022-08-08T19:26:50.932Z,1.60
2022-08-08T19:29:22.254Z,1.70
2022-08-08T19:31:50.486Z,1.67
2022-08-08T19:34:35.516Z,2.10
2022-08-08T19:37:06.959Z,1.70
2022-08-08T19:39:36.746Z,1.80
2022-08-08T19:42:06.938Z,1.73
2022-08-08T19:44:45.685Z,1.73
2022-08-08T19:47:15.782Z,1.60
2022-08-08T19:50:00.008Z,1.53
2022-08-08T19:52:35.439Z,1.40
2022-08-08T19:55:11.337Z,1.80
2022-08-08T19:57:41.132Z,1.60
2022-08-08T20:00:29.082Z,2.10
2022-08-08T20:02:59.368Z,1.70
2022-08-08T20:06:14.255Z,1.63
2022-08-08T20:08:29.882Z,2.10
2022-08-08T20:11:03.157Z,2.20
2022-08-08T20:14:33.405Z,1.90
2022-08-08T20:16:19.877Z,1.57
2022-08-08T20:18:53.314Z,1.73
2022-08-08T20:21:25.821Z,1.70
2022-08-08T20:23:58.065Z,1.77
2022-08-08T20:26:33.594Z,1.47
2022-08-08T20:29:03.247Z,2.07
2022-08-08T20:32:10.615Z,2.00
2022-08-08T20:34:47.988Z,1.80
2022-08-08T20:37:21.927Z,1.57
2022-08-08T20:39:51.100Z,1.90
2022-08-08T20:42:28.261Z,1.70
2022-08-08T20:44:58.974Z,1.60
2022-08-08T20:47:35.932Z,1.60
2022-08-08T20:50:06.084Z,1.57
2022-08-08T20:52:38.985Z,1.50
2022-08-08T20:55:16.330Z,1.80
2022-08-08T20:57:57.816Z,1.93
2022-08-08T21:00:27.696Z,1.97
2022-08-08T21:02:55.964Z,1.63
2022-08-08T21:05:24.444Z,1.90
2022-08-08T21:08:33.955Z,1.73
2022-08-08T21:10:50.110Z,1.80
2022-08-08T21:13:19.585Z,1.57
2022-08-08T21:16:06.146Z,1.80
2022-08-08T21:18:36.577Z,2.10
2022-08-08T21:21:19.568Z,1.67
2022-08-08T21:23:59.273Z,1.73
2022-08-08T21:26:33.244Z,1.70
2022-08-08T21:29:03.657Z,1.60
2022-08-08T21:31:58.410Z,1.77
2022-08-08T21:34:35.058Z,2.30
2022-08-08T21:37:11.392Z,1.87
2022-08-08T21:39:56.539Z,1.50
2022-08-08T21:42:25.454Z,1.87
2022-08-08T21:44:58.061Z,1.90
2022-08-08T21:48:07.615Z,1.80
2022-08-08T21:50:16.350Z,2.00
2022-08-08T21:54:34.362Z,1.70
2022-08-08T21:56:25.923Z,2.00
2022-08-08T21:58:24.823Z,1.80
2022-08-08T22:01:04.120Z,1.70
2022-08-08T22:03:32.882Z,1.40
2022-08-08T22:06:02.414Z,1.67
2022-08-08T22:08:36.975Z,1.67
2022-08-08T22:11:52.146Z,1.70
2022-08-08T22:13:58.974Z,1.73
2022-08-08T22:16:30.041Z,2.05
2022-08-08T22:18:58.591Z,1.80
2022-08-08T22:21:34.317Z,1.60
2022-08-08T22:24:03.020Z,1.88
2022-08-08T22:26:32.587Z,1.70
2022-08-08T22:29:12.819Z,1.45
2022-08-08T22:32:01.950Z,1.57
2022-08-08T22:34:33.070Z,1.97
2022-08-08T22:37:27.801Z,2.37
2022-08-08T22:40:00.328Z,1.80
2022-08-08T22:42:31.790Z,1.90
2022-08-08T22:45:03.023Z,1.60
2022-08-08T22:47:34.362Z,1.90
2022-08-08T22:50:09.929Z,1.77
2022-08-08T22:53:22.356Z,2.05
2022-08-08T22:55:59.159Z,2.10
2022-08-08T22:58:31.148Z,2.17
2022-08-08T23:01:01.205Z,1.80
2022-08-08T23:03:52.753Z,2.10
2022-08-08T23:06:19.253Z,1.90
2022-08-08T23:08:55.234Z,1.88
2022-08-08T23:11:58.099Z,1.63
2022-08-08T23:14:13.141Z,2.10
2022-08-08T23:16:43.810Z,1.65
2022-08-08T23:19:15.559Z,1.98
2022-08-08T23:21:45.800Z,1.70
2022-08-08T23:24:22.871Z,1.90
2022-08-08T23:26:55.589Z,2.35
2022-08-08T23:29:27.195Z,1.60
2022-08-08T23:31:59.580Z,1.95
2022-08-08T23:34:31.135Z,1.63
2022-08-08T23:37:00.642Z,1.93
2022-08-08T23:39:42.069Z,2.13
2022-08-08T23:42:17.882Z,1.90
2022-08-08T23:44:50.088Z,1.73
2022-08-08T23:49:06.330Z,1.63
2022-08-08T23:50:29.906Z,1.70
2022-08-08T23:52:59.222Z,2.03
2022-08-08T23:55:32.308Z,1.73
2022-08-08T23:58:06.648Z,1.83
